Time;durP1;ratioP1;P1;durP2;ratioP2;P2;SDS_P1;SDS_P2;PMS_P1;PMS_P2;Temp;Humidity;BMP_temperature;BMP_pressure;BME280_temperature;BME280_humidity;BME280_pressure;Samples;Min_cycle;Max_cycle;Signal;HPM_P1;HPM_P2
2022/12/15 00:40:18;;;;;;;56.20;20.20;;;6.20;99.90;;;;;;5092374;28;20397;-55
2022/12/15 00:42:44;;;;;;;48.25;20.88;;;6.20;99.90;;;;;;5089672;28;20024;-55
2022/12/15 00:45:10;;;;;;;55.33;21.05;;;6.20;99.90;;;;;;5107974;28;20540;-54
2022/12/15 00:47:35;;;;;;;47.33;20.20;;;6.20;99.90;;;;;;5073103;28;20379;-55
2022/12/15 01:20:13;;;;;;;40.67;19.02;;;6.10;99.90;;;;;;5091756;28;20032;-55
2022/12/15 01:22:39;;;;;;;37.38;18.67;;;6.20;99.90;;;;;;5073214;28;20061;-55
2022/12/15 01:25:05;;;;;;;38.42;18.20;;;6.10;99.90;;;;;;5088871;28;20024;-55
2022/12/15 01:27:31;;;;;;;42.63;18.95;;;6.20;99.90;;;;;;5107170;28;20067;-55
2022/12/15 01:29:56;;;;;;;48.13;20.83;;;6.10;99.90;;;;;;5088956;28;20027;-55
2022/12/15 01:32:22;;;;;;;48.03;19.58;;;6.20;99.90;;;;;;5089330;28;20039;-55
2022/12/15 01:34:48;;;;;;;43.38;19.08;;;6.10;99.90;;;;;;5106924;28;20050;-55
2022/12/15 01:37:13;;;;;;;40.63;17.77;;;6.10;99.90;;;;;;5107021;28;20028;-55
2022/12/15 01:42:23;;;;;;;42.70;18.38;;;6.10;99.90;;;;;;5106920;28;20059;-55
2022/12/15 01:44:49;;;;;;;45.92;19.17;;;6.10;99.90;;;;;;5106803;28;20369;-55
2022/12/15 01:47:15;;;;;;;37.08;17.50;;;6.10;99.90;;;;;;5106902;28;20032;-55
2022/12/15 01:49:41;;;;;;;44.00;18.60;;;6.10;99.90;;;;;;5071756;28;20084;-56
2022/12/15 01:52:07;;;;;;;43.35;17.42;;;6.10;99.90;;;;;;5071454;28;20485;-55
2022/12/15 01:54:54;;;;;;;45.03;19.00;;;6.10;99.90;;;;;;5072012;28;20039;-55
2022/12/15 01:57:26;;;;;;;43.45;19.05;;;6.10;99.90;;;;;;5088515;28;20065;-55
2022/12/15 01:59:52;;;;;;;38.70;18.23;;;6.10;99.90;;;;;;5071868;28;20079;-56
2022/12/15 02:02:20;;;;;;;39.88;18.15;;;6.10;99.90;;;;;;5088522;28;20059;-55
2022/12/15 02:04:45;;;;;;;44.10;19.30;;;6.10;99.90;;;;;;5072039;28;20028;-55
2022/12/15 02:07:14;;;;;;;41.85;17.85;;;6.10;99.90;;;;;;5071486;28;20495;-55
2022/12/15 02:09:40;;;;;;;46.88;18.48;;;6.10;99.90;;;;;;5071390;28;20028;-56
2022/12/15 02:12:09;;;;;;;30.63;16.60;;;6.10;99.90;;;;;;5087921;28;20061;-56
2022/12/15 02:14:56;;;;;;;39.05;17.05;;;6.10;99.90;;;;;;5106275;28;20054;-55
2022/12/15 02:17:30;;;;;;;29.70;16.02;;;6.10;99.90;;;;;;5106325;28;20052;-56
2022/12/15 02:20:07;;;;;;;39.88;17.38;;;6.00;99.90;;;;;;5071799;28;20036;-55
2022/12/15 02:23:11;;;;;;;43.53;16.65;;;6.10;99.90;;;;;;5086863;28;20024;-55
2022/12/15 02:25:57;;;;;;;36.38;16.83;;;6.00;99.90;;;;;;5087414;28;20127;-55
2022/12/15 02:28:29;;;;;;;35.95;17.48;;;6.00;99.90;;;;;;5106086;28;20024;-56
2022/12/15 02:34:07;;;;;;;34.00;16.00;;;6.00;99.90;;;;;;5076305;28;20069;-56
2022/12/15 02:36:38;;;;;;;42.58;16.13;;;6.00;99.90;;;;;;5087503;28;20050;-55
2022/12/15 02:39:04;;;;;;;41.72;16.50;;;6.00;99.90;;;;;;5070818;28;20020;-56
2022/12/15 02:41:37;;;;;;;28.70;15.65;;;6.00;99.90;;;;;;5070885;28;20077;-55
2022/12/15 02:44:09;;;;;;;30.73;16.05;;;6.00;99.90;;;;;;5087386;28;20055;-56
2022/12/15 02:47:13;;;;;;;31.58;16.08;;;6.00;99.90;;;;;;5071386;28;20042;-56
2022/12/15 02:50:16;;;;;;;33.35;15.75;;;6.00;99.90;;;;;;5011539;28;20033;-56
2022/12/15 02:53:25;;;;;;;29.15;15.75;;;6.10;99.90;;;;;;5105510;28;20047;-56
2022/12/15 02:56:04;;;;;;;31.38;15.82;;;6.00;99.90;;;;;;5087230;28;20044;-56
2022/12/15 02:58:29;;;;;;;32.35;15.35;;;6.00;99.90;;;;;;5087234;28;20039;-55
2022/12/15 03:01:03;;;;;;;32.60;15.20;;;6.00;99.90;;;;;;5105436;28;20040;-56
2022/12/15 03:03:29;;;;;;;28.90;14.57;;;6.00;99.90;;;;;;5070901;28;20089;-56
2022/12/15 03:05:56;;;;;;;25.90;13.55;;;6.00;99.90;;;;;;5070259;28;20028;-55
2022/12/15 03:08:21;;;;;;;28.60;14.43;;;6.00;99.90;;;;;;5070859;28;20028;-55
2022/12/15 03:10:51;;;;;;;29.48;14.48;;;6.00;99.90;;;;;;5105189;28;20362;-55
2022/12/15 03:13:16;;;;;;;27.73;14.73;;;6.00;99.90;;;;;;5070754;28;20491;-56
2022/12/15 03:15:42;;;;;;;34.45;15.25;;;6.00;99.90;;;;;;5087070;28;20036;-56
2022/12/15 03:18:07;;;;;;;30.67;14.45;;;6.00;99.90;;;;;;5087095;28;20039;-56
2022/12/15 03:20:33;;;;;;;33.25;14.95;;;6.00;99.90;;;;;;5086912;28;20024;-55
2022/12/15 03:22:58;;;;;;;26.88;14.23;;;6.00;99.90;;;;;;5086842;28;20028;-56
2022/12/15 03:25:24;;;;;;;25.83;14.68;;;6.00;99.90;;;;;;5105076;28;20051;-56
2022/12/15 03:27:49;;;;;;;26.33;14.25;;;6.00;99.90;;;;;;5105167;28;20434;-55
2022/12/15 03:30:15;;;;;;;28.55;13.70;;;6.00;99.90;;;;;;5104856;28;20059;-56
2022/12/15 03:32:40;;;;;;;26.38;13.77;;;6.00;99.90;;;;;;5086448;28;20024;-56
2022/12/15 03:35:06;;;;;;;29.88;14.77;;;6.00;99.90;;;;;;5070106;28;20046;-56
2022/12/15 03:37:32;;;;;;;30.55;13.60;;;6.00;99.90;;;;;;5086812;28;20111;-56
2022/12/15 03:39:58;;;;;;;29.52;14.75;;;6.00;99.90;;;;;;5069703;28;20035;-55
2022/12/15 03:45:07;;;;;;;29.40;13.27;;;5.90;99.90;;;;;;5089412;28;20035;-56
2022/12/15 03:47:33;;;;;;;19.52;13.00;;;5.90;99.90;;;;;;5086523;28;20065;-56
2022/12/15 03:49:58;;;;;;;28.50;13.73;;;5.90;99.90;;;;;;5086566;28;20084;-56
2022/12/15 03:52:24;;;;;;;24.77;12.90;;;5.90;99.90;;;;;;5104583;28;20032;-55
2022/12/15 03:54:50;;;;;;;25.88;12.88;;;6.00;99.90;;;;;;5105052;28;20024;-55
2022/12/15 03:57:15;;;;;;;23.95;12.60;;;6.00;99.90;;;;;;5105017;28;20449;-56
2022/12/15 03:59:41;;;;;;;27.77;13.23;;;6.00;99.90;;;;;;5069919;28;20079;-55
2022/12/15 04:02:08;;;;;;;24.95;13.43;;;5.90;99.90;;;;;;5104802;28;20078;-55
2022/12/15 04:04:33;;;;;;;21.00;12.55;;;5.90;99.90;;;;;;5069838;28;20108;-56
2022/12/15 04:06:59;;;;;;;24.02;12.48;;;5.90;99.90;;;;;;5104518;28;20397;-56
2022/12/15 04:09:25;;;;;;;26.08;12.80;;;6.00;99.90;;;;;;5104523;28;20020;-55
2022/12/15 04:11:50;;;;;;;27.15;13.18;;;6.00;99.90;;;;;;5086230;28;20035;-55
2022/12/15 04:14:16;;;;;;;28.63;14.07;;;5.90;99.90;;;;;;5104851;28;20035;-56
2022/12/15 04:16:41;;;;;;;29.40;15.48;;;6.00;99.90;;;;;;5069742;28;20028;-55
2022/12/15 04:21:51;;;;;;;23.45;13.60;;;5.90;99.90;;;;;;5104670;28;20065;-55
2022/12/15 05:32:38;;;;;;;17.98;10.70;;;6.10;99.90;;;;;;5107143;28;20039;-55
2022/12/15 05:35:04;;;;;;;22.38;11.88;;;6.10;99.90;;;;;;5107101;28;20024;-55
2022/12/15 05:37:30;;;;;;;21.55;10.75;;;6.10;99.90;;;;;;5106965;28;20374;-55
2022/12/15 05:39:55;;;;;;;24.30;11.02;;;6.10;99.90;;;;;;5107149;28;20047;-55
2022/12/15 05:42:21;;;;;;;18.83;10.80;;;6.10;99.90;;;;;;5072204;28;20044;-55
2022/12/15 05:44:46;;;;;;;24.98;11.63;;;6.10;99.90;;;;;;5055768;28;20072;-54
2022/12/15 05:47:12;;;;;;;19.73;11.02;;;6.10;99.90;;;;;;5108398;28;20116;-55
2022/12/15 05:49:37;;;;;;;20.20;10.38;;;6.10;99.90;;;;;;5089440;28;20032;-55
2022/12/15 05:52:03;;;;;;;20.33;10.63;;;6.10;99.90;;;;;;5107374;28;20032;-55
2022/12/15 05:54:29;;;;;;;16.08;10.10;;;6.10;99.90;;;;;;5089368;28;20474;-55
2022/12/15 05:56:54;;;;;;;22.90;10.55;;;6.10;99.90;;;;;;5089849;28;20075;-55
2022/12/15 05:59:20;;;;;;;24.20;10.95;;;6.10;99.90;;;;;;5092225;28;20091;-54
2022/12/15 06:01:45;;;;;;;21.08;10.60;;;6.20;99.90;;;;;;5107419;28;20036;-55
2022/12/15 06:04:11;;;;;;;19.52;9.52;;;6.10;99.90;;;;;;5088293;28;20020;-55
2022/12/15 06:06:37;;;;;;;19.02;10.20;;;6.10;99.90;;;;;;5054772;28;20035;-55
2022/12/15 06:09:03;;;;;;;20.83;10.00;;;6.10;99.90;;;;;;5071436;28;20032;-55
2022/12/15 06:11:29;;;;;;;20.13;9.88;;;6.10;99.90;;;;;;5088123;28;20035;-55
2022/12/15 06:13:54;;;;;;;18.27;9.93;;;6.10;99.90;;;;;;5071582;28;20119;-55
2022/12/15 06:16:21;;;;;;;23.73;10.13;;;6.10;99.90;;;;;;5071196;28;20123;-55
2022/12/15 06:18:52;;;;;;;21.13;10.13;;;6.10;99.90;;;;;;5088267;28;20046;-55
2022/12/15 06:21:19;;;;;;;19.17;9.48;;;6.10;99.90;;;;;;5071358;28;20101;-55
2022/12/15 06:23:45;;;;;;;19.90;9.88;;;6.10;99.90;;;;;;5087921;28;20104;-55
2022/12/15 06:26:12;;;;;;;19.50;9.55;;;6.10;99.90;;;;;;5087773;28;20087;-55
2022/12/15 06:28:37;;;;;;;15.15;8.73;;;6.10;99.90;;;;;;5087280;28;20050;-55
2022/12/15 06:31:04;;;;;;;15.13;9.75;;;6.10;99.90;;;;;;5087687;28;20024;-55
2022/12/15 06:33:29;;;;;;;22.63;9.95;;;6.10;99.90;;;;;;5105676;28;20026;-55
2022/12/15 06:35:55;;;;;;;16.75;9.70;;;6.10;99.90;;;;;;5087461;28;20074;-55
2022/12/15 06:38:21;;;;;;;20.63;9.85;;;6.00;99.90;;;;;;5105687;28;20016;-54
2022/12/15 06:40:57;;;;;;;19.20;9.82;;;6.10;99.90;;;;;;5087355;28;20371;-55
2022/12/15 06:43:23;;;;;;;17.67;9.40;;;6.10;99.90;;;;;;5105515;28;20504;-54
2022/12/15 06:45:50;;;;;;;16.23;8.68;;;6.00;99.90;;;;;;5105616;28;20032;-55
2022/12/15 06:48:16;;;;;;;19.42;8.32;;;6.10;99.90;;;;;;5087572;28;20339;-55
2022/12/15 06:50:41;;;;;;;16.23;9.25;;;6.10;99.90;;;;;;5087117;28;20047;-55
2022/12/15 06:53:07;;;;;;;12.98;8.63;;;6.10;99.90;;;;;;5105125;28;20423;-55
2022/12/15 06:55:32;;;;;;;13.00;8.43;;;6.00;99.90;;;;;;5086979;28;20028;-55
2022/12/15 06:57:58;;;;;;;17.55;9.50;;;6.10;99.90;;;;;;5087022;28;20111;-55
2022/12/15 07:00:23;;;;;;;19.13;9.32;;;6.10;99.90;;;;;;5105123;28;20028;-55
2022/12/15 07:02:49;;;;;;;14.05;8.95;;;6.10;99.90;;;;;;5086999;28;20042;-55
2022/12/15 07:05:15;;;;;;;14.82;8.60;;;6.10;99.90;;;;;;5086953;28;20049;-55
2022/12/15 07:07:40;;;;;;;16.00;8.75;;;6.10;99.90;;;;;;5086098;28;20058;-54
2022/12/15 07:10:06;;;;;;;13.13;8.00;;;6.10;99.90;;;;;;5087047;28;20024;-55
2022/12/15 07:12:32;;;;;;;21.58;8.48;;;6.10;99.90;;;;;;5087069;28;20091;-55
2022/12/15 07:14:57;;;;;;;13.45;8.20;;;6.10;99.90;;;;;;5105108;28;20112;-55
2022/12/15 07:17:23;;;;;;;14.05;8.30;;;6.10;99.90;;;;;;5091814;28;20024;-55
2022/12/15 07:19:49;;;;;;;14.80;8.18;;;6.10;99.90;;;;;;5124619;28;20027;-55
2022/12/15 07:22:14;;;;;;;11.75;7.43;;;6.10;99.90;;;;;;5105599;28;20024;-54
2022/12/15 07:24:40;;;;;;;13.75;8.52;;;6.10;99.90;;;;;;5125366;28;20016;-55
2022/12/15 07:27:05;;;;;;;14.07;7.82;;;6.10;99.90;;;;;;5102862;28;20023;-55
2022/12/15 07:29:31;;;;;;;12.60;8.00;;;6.10;99.90;;;;;;5105291;28;20031;-55
2022/12/15 07:31:57;;;;;;;11.63;7.25;;;6.00;99.90;;;;;;5100040;28;20042;-53
2022/12/15 07:34:22;;;;;;;11.45;7.20;;;6.10;99.90;;;;;;5122970;28;20030;-55
2022/12/15 07:36:48;;;;;;;11.98;7.20;;;6.10;99.90;;;;;;5096056;28;20032;-55
2022/12/15 07:39:14;;;;;;;17.52;7.68;;;6.10;99.90;;;;;;5086524;28;20031;-54
2022/12/15 07:41:40;;;;;;;12.07;7.35;;;6.10;99.90;;;;;;5121803;28;20023;-55
2022/12/15 07:44:06;;;;;;;10.73;6.93;;;6.10;99.90;;;;;;5104218;28;20026;-55
2022/12/15 07:46:32;;;;;;;10.68;7.15;;;6.10;99.90;;;;;;5096415;28;20040;-55
2022/12/15 07:48:57;;;;;;;12.82;7.00;;;6.10;99.90;;;;;;5086619;28;20108;-55
2022/12/15 07:51:23;;;;;;;12.85;6.93;;;6.10;99.90;;;;;;5101332;28;20043;-54
2022/12/15 07:53:48;;;;;;;11.00;6.80;;;6.00;99.90;;;;;;5106399;28;20053;-55
2022/12/15 07:56:14;;;;;;;11.18;6.93;;;6.10;99.90;;;;;;5089632;28;20361;-55
2022/12/15 07:58:40;;;;;;;9.35;6.65;;;6.00;99.90;;;;;;5089634;28;20468;-55
2022/12/15 08:01:07;;;;;;;9.85;6.65;;;6.10;99.90;;;;;;5072794;28;20068;-55
2022/12/15 08:03:33;;;;;;;13.43;6.82;;;6.00;99.90;;;;;;5106840;28;20070;-55
2022/12/15 08:06:03;;;;;;;9.32;6.47;;;6.10;99.90;;;;;;5106430;28;20549;-54
2022/12/15 08:08:28;;;;;;;13.30;7.13;;;6.10;99.90;;;;;;5125064;28;20031;-55
2022/12/15 08:10:54;;;;;;;25.55;8.07;;;6.10;99.90;;;;;;5106155;28;20148;-54
2022/12/15 08:13:19;;;;;;;121.38;16.88;;;6.10;99.90;;;;;;5124996;28;20031;-55
2022/12/15 08:15:45;;;;;;;69.25;10.88;;;6.00;99.90;;;;;;5106400;28;20104;-55
2022/12/15 08:18:10;;;;;;;32.60;8.13;;;6.10;99.90;;;;;;5104282;28;20039;-54
2022/12/15 08:20:36;;;;;;;38.05;9.07;;;6.10;99.90;;;;;;5096040;28;20046;-54
2022/12/15 08:23:01;;;;;;;32.83;8.70;;;6.10;99.90;;;;;;5110605;28;20047;-55
2022/12/15 08:25:27;;;;;;;58.03;9.10;;;6.20;99.90;;;;;;5106669;28;20023;-55
2022/12/15 08:27:53;;;;;;;46.67;8.07;;;6.10;99.90;;;;;;5082039;28;20031;-54
2022/12/15 08:30:19;;;;;;;30.25;10.25;;;6.20;99.90;;;;;;5092446;28;20024;-54
2022/12/15 08:32:45;;;;;;;58.47;11.43;;;6.10;99.90;;;;;;5104621;28;20034;-55
2022/12/15 08:35:11;;;;;;;46.22;11.02;;;6.20;99.90;;;;;;5092988;28;20057;-55
2022/12/15 08:37:36;;;;;;;50.38;8.88;;;6.20;99.90;;;;;;5098397;28;20032;-54
2022/12/15 08:40:02;;;;;;;32.03;8.57;;;6.20;99.90;;;;;;5099218;28;20059;-54
2022/12/15 08:42:32;;;;;;;67.22;11.55;;;6.20;99.90;;;;;;5121461;28;20059;-54
2022/12/15 08:44:58;;;;;;;46.85;10.13;;;6.20;99.90;;;;;;5109904;28;20036;-54
2022/12/15 08:47:23;;;;;;;35.03;8.48;;;6.20;99.90;;;;;;5128158;28;20050;-54
2022/12/15 08:49:49;;;;;;;39.67;9.70;;;6.20;99.90;;;;;;5126745;28;20123;-54
2022/12/15 08:52:14;;;;;;;59.10;10.82;;;6.20;99.90;;;;;;5109024;28;20035;-54
2022/12/15 08:54:40;;;;;;;51.95;10.63;;;6.20;99.90;;;;;;5109085;28;20019;-54
2022/12/15 08:57:05;;;;;;;44.10;8.63;;;6.20;99.90;;;;;;5109525;28;20030;-54
2022/12/15 08:59:31;;;;;;;51.08;9.00;;;6.20;99.90;;;;;;5109733;28;20019;-55
2022/12/15 09:01:57;;;;;;;56.97;9.65;;;6.30;99.90;;;;;;5108725;28;20028;-54
2022/12/15 09:04:23;;;;;;;28.65;7.82;;;6.30;99.90;;;;;;5109740;28;20044;-55
2022/12/15 09:06:48;;;;;;;37.85;8.35;;;6.20;99.90;;;;;;5128125;28;20091;-55
2022/12/15 09:09:14;;;;;;;33.85;7.75;;;6.30;99.90;;;;;;5109443;28;20441;-54
2022/12/15 09:11:39;;;;;;;48.78;8.77;;;6.30;99.90;;;;;;5108775;28;20069;-55
2022/12/15 09:14:05;;;;;;;38.28;8.30;;;6.30;99.90;;;;;;5109322;28;20080;-54
2022/12/15 09:16:31;;;;;;;34.92;8.55;;;6.30;99.90;;;;;;5109149;28;20039;-54
2022/12/15 09:18:57;;;;;;;40.97;8.27;;;6.30;99.90;;;;;;5109433;28;20016;-54
2022/12/15 09:21:25;;;;;;;42.30;8.07;;;6.30;99.90;;;;;;5126393;28;20046;-55
2022/12/15 09:23:51;;;;;;;27.50;7.65;;;6.30;99.90;;;;;;5126614;28;20032;-55
2022/12/15 09:26:17;;;;;;;27.60;7.57;;;6.30;99.90;;;;;;5127448;28;20448;-54
2022/12/15 09:28:42;;;;;;;22.55;7.30;;;6.30;99.90;;;;;;5091754;28;20050;-54
2022/12/15 09:31:13;;;;;;;23.02;6.95;;;6.30;99.90;;;;;;5088602;28;20461;-55
2022/12/15 09:33:39;;;;;;;29.58;7.95;;;6.30;99.90;;;;;;5088906;28;20039;-54
2022/12/15 09:36:05;;;;;;;22.02;7.47;;;6.30;99.90;;;;;;5071905;28;20025;-55
2022/12/15 09:38:37;;;;;;;26.83;7.85;;;6.30;99.90;;;;;;5106838;28;20055;-54
2022/12/15 09:41:13;;;;;;;30.40;8.10;;;6.30;99.90;;;;;;5088352;28;20035;-54
2022/12/15 09:44:08;;;;;;;52.33;8.20;;;6.30;99.90;;;;;;5106766;28;20024;-55
2022/12/15 09:47:11;;;;;;;41.08;8.30;;;6.30;99.90;;;;;;5087973;28;20050;-55
2022/12/15 09:49:53;;;;;;;38.15;7.75;;;6.30;99.90;;;;;;5106661;28;20044;-54
2022/12/15 09:52:26;;;;;;;38.78;8.27;;;6.40;99.90;;;;;;5106424;28;20139;-54
2022/12/15 09:54:52;;;;;;;47.83;9.02;;;6.40;99.90;;;;;;5106919;28;20119;-55
2022/12/15 09:57:23;;;;;;;55.35;8.93;;;6.40;99.90;;;;;;5071168;28;20163;-54
2022/12/15 10:00:10;;;;;;;45.55;8.57;;;6.40;99.90;;;;;;5106152;28;20202;-54
2022/12/15 10:03:08;;;;;;;38.30;9.25;;;6.40;99.90;;;;;;5106543;28;20043;-55
2022/12/15 10:05:33;;;;;;;63.17;9.10;;;6.40;99.90;;;;;;5069932;28;20462;-55
2022/12/15 10:07:59;;;;;;;68.22;10.77;;;6.40;99.90;;;;;;5107052;28;20030;-54
2022/12/15 10:10:31;;;;;;;47.40;8.02;;;6.50;99.90;;;;;;5088313;28;20052;-55
2022/12/15 10:12:59;;;;;;;63.13;9.35;;;6.50;99.90;;;;;;5072125;28;20114;-55
2022/12/15 10:15:26;;;;;;;50.67;9.23;;;6.50;99.90;;;;;;5073782;28;20490;-55
2022/12/15 10:18:17;;;;;;;45.33;8.80;;;6.50;99.90;;;;;;5071852;28;20349;-54
2022/12/15 10:20:43;;;;;;;52.63;9.70;;;6.50;99.90;;;;;;5088053;28;20055;-54
2022/12/15 10:23:13;;;;;;;60.67;10.88;;;6.50;99.80;;;;;;5105594;28;20024;-55
2022/12/15 10:25:40;;;;;;;59.63;9.70;;;6.50;99.90;;;;;;5071631;28;20095;-55
2022/12/15 10:28:15;;;;;;;61.50;10.23;;;6.50;99.90;;;;;;5071008;28;20032;-54
2022/12/15 10:30:50;;;;;;;84.30;11.93;;;6.50;99.90;;;;;;5105678;28;20028;-54
2022/12/15 10:33:45;;;;;;;52.85;11.23;;;6.60;99.90;;;;;;5087851;28;20514;-54
2022/12/15 10:36:12;;;;;;;69.95;10.57;;;6.60;99.90;;;;;;5096706;28;20123;-54
2022/12/15 10:38:41;;;;;;;71.53;11.00;;;6.60;99.90;;;;;;5087028;28;20065;-54
2022/12/15 10:41:08;;;;;;;61.03;9.77;;;6.60;99.90;;;;;;5071072;28;20091;-54
2022/12/15 10:43:37;;;;;;;59.15;10.55;;;6.60;99.90;;;;;;5069961;28;20195;-54
2022/12/15 10:46:09;;;;;;;73.20;12.40;;;6.60;99.90;;;;;;5105655;28;20062;-54
2022/12/15 10:48:35;;;;;;;81.38;11.18;;;6.60;99.90;;;;;;5105483;28;20042;-54
2022/12/15 10:51:12;;;;;;;64.82;11.65;;;6.60;99.90;;;;;;5070159;28;20139;-54
2022/12/15 10:53:40;;;;;;;70.72;11.15;;;6.60;99.90;;;;;;5087239;28;20059;-55
2022/12/15 10:56:07;;;;;;;65.95;10.90;;;6.60;99.90;;;;;;5070176;28;20062;-55
2022/12/15 10:58:45;;;;;;;82.30;10.85;;;6.70;99.90;;;;;;5087153;28;20036;-55
2022/12/15 11:01:16;;;;;;;70.78;11.93;;;6.70;99.90;;;;;;5071981;28;20028;-54
2022/12/15 11:03:42;;;;;;;60.53;10.35;;;6.70;99.90;;;;;;5069957;28;20028;-54
2022/12/15 11:06:16;;;;;;;53.72;10.40;;;6.70;99.90;;;;;;5069689;28;20104;-55
2022/12/15 11:08:42;;;;;;;55.00;10.90;;;6.70;99.90;;;;;;5070107;28;20083;-55
2022/12/15 11:14:27;;;;;;;64.43;12.88;;;6.70;99.90;;;;;;5076142;28;20027;-55
2022/12/15 11:16:54;;;;;;;78.45;12.52;;;6.70;99.90;;;;;;5069787;28;20423;-54
2022/12/15 11:19:38;;;;;;;63.78;11.15;;;6.70;99.90;;;;;;5086777;28;20035;-55
2022/12/15 11:22:41;;;;;;;72.35;13.15;;;6.80;99.90;;;;;;5086522;28;20093;-54
2022/12/15 11:25:15;;;;;;;58.63;11.30;;;6.80;99.90;;;;;;5067511;28;20147;-54
2022/12/15 11:27:42;;;;;;;65.03;12.07;;;6.80;99.90;;;;;;5086506;28;20040;-54
2022/12/15 11:30:19;;;;;;;62.58;12.35;;;6.80;99.90;;;;;;5086422;28;20051;-54
2022/12/15 11:32:47;;;;;;;53.78;12.20;;;6.80;99.90;;;;;;5070263;28;20028;-54
2022/12/15 11:35:14;;;;;;;71.10;13.38;;;6.80;99.90;;;;;;5070072;28;20110;-54
2022/12/15 11:37:43;;;;;;;57.20;12.82;;;6.80;99.90;;;;;;5086179;28;20081;-54
2022/12/15 11:40:29;;;;;;;58.83;12.82;;;6.80;99.90;;;;;;5069386;28;20032;-55
2022/12/15 11:43:24;;;;;;;58.08;11.93;;;6.80;99.90;;;;;;5068915;28;20024;-55
2022/12/15 11:46:10;;;;;;;65.57;11.77;;;6.80;99.90;;;;;;5071373;28;20036;-55
2022/12/15 11:48:45;;;;;;;50.50;10.80;;;6.80;99.90;;;;;;5087447;28;20032;-54
2022/12/15 11:51:16;;;;;;;37.20;10.63;;;6.80;99.90;;;;;;5085837;28;20043;-54
2022/12/15 11:54:27;;;;;;;62.90;12.55;;;6.80;99.80;;;;;;5087175;28;20060;-54
2022/12/15 11:57:01;;;;;;;58.25;12.27;;;6.80;99.90;;;;;;5058780;28;20088;-55
2022/12/15 11:59:44;;;;;;;44.17;11.05;;;6.80;99.90;;;;;;5074396;28;20028;-54
2022/12/15 12:02:34;;;;;;;45.53;11.57;;;6.80;99.90;;;;;;5108736;28;20035;-55
2022/12/15 12:05:14;;;;;;;47.05;11.25;;;6.80;99.90;;;;;;5075552;28;20024;-54
2022/12/15 12:07:48;;;;;;;35.75;11.13;;;6.80;99.80;;;;;;5090996;28;20513;-54
2022/12/15 12:10:19;;;;;;;38.70;11.45;;;6.80;99.90;;;;;;5073353;28;20024;-55
2022/12/15 12:12:54;;;;;;;56.40;12.80;;;6.80;99.80;;;;;;5089771;28;20024;-54
2022/12/15 12:15:26;;;;;;;43.03;10.95;;;6.80;99.80;;;;;;5074274;28;20106;-54
2022/12/15 12:17:54;;;;;;;42.80;11.02;;;6.80;99.80;;;;;;5108661;28;20016;-54
2022/12/15 12:20:26;;;;;;;46.47;12.10;;;6.80;99.70;;;;;;5089962;28;20470;-56
2022/12/15 12:23:01;;;;;;;55.08;11.98;;;6.80;99.50;;;;;;5056703;28;20027;-54
2022/12/15 12:25:26;;;;;;;58.05;12.57;;;6.90;99.50;;;;;;5090031;28;20027;-54
2022/12/15 12:27:56;;;;;;;43.40;12.43;;;6.90;99.60;;;;;;5072276;28;20032;-55
2022/12/15 12:30:24;;;;;;;41.28;11.32;;;6.90;99.60;;;;;;5089689;28;20039;-55
2022/12/15 12:32:53;;;;;;;55.88;14.07;;;6.90;99.60;;;;;;5122018;27;20093;-55
2022/12/15 12:35:27;;;;;;;63.50;12.45;;;6.90;99.50;;;;;;5081739;28;20028;-55
2022/12/15 12:37:59;;;;;;;44.50;11.82;;;6.90;99.50;;;;;;5092479;28;20028;-54
2022/12/15 12:40:39;;;;;;;40.78;10.55;;;6.90;99.40;;;;;;5110640;28;20028;-55
2022/12/15 12:43:09;;;;;;;36.40;10.43;;;6.90;99.50;;;;;;5128457;28;20039;-55
2022/12/15 12:45:51;;;;;;;33.38;10.77;;;6.90;99.50;;;;;;5109861;28;20031;-55
2022/12/15 12:48:41;;;;;;;28.20;9.68;;;6.90;99.40;;;;;;5092700;28;20028;-54
2022/12/15 12:51:21;;;;;;;47.45;10.50;;;6.90;99.40;;;;;;5105837;28;20047;-55
2022/12/15 12:53:48;;;;;;;38.55;10.93;;;6.90;99.50;;;;;;5101327;28;20032;-55
2022/12/15 12:56:32;;;;;;;47.65;11.63;;;6.90;99.50;;;;;;5108312;28;20043;-54
2022/12/15 12:58:57;;;;;;;40.22;11.02;;;6.90;99.50;;;;;;5108501;28;20020;-54
2022/12/15 13:01:30;;;;;;;36.75;11.70;;;6.90;99.40;;;;;;5107220;28;20046;-55
2022/12/15 13:04:12;;;;;;;45.28;12.05;;;6.90;99.50;;;;;;5107743;28;20106;-54
2022/12/15 13:06:37;;;;;;;64.88;12.40;;;6.90;99.60;;;;;;5108413;28;20089;-55
2022/12/15 13:09:15;;;;;;;47.15;12.65;;;6.90;99.50;;;;;;5108915;28;20400;-55
2022/12/15 13:11:47;;;;;;;43.53;11.60;;;6.90;99.70;;;;;;5120616;28;20149;-54
2022/12/15 13:14:17;;;;;;;58.67;13.50;;;6.90;99.40;;;;;;5118309;28;20030;-55
2022/12/15 13:16:44;;;;;;;41.83;11.27;;;6.90;99.30;;;;;;5093061;28;20164;-54
2022/12/15 13:19:09;;;;;;;58.30;12.55;;;6.90;99.30;;;;;;5092536;28;20073;-54
2022/12/15 13:21:41;;;;;;;65.80;14.40;;;6.90;99.30;;;;;;5092150;28;20028;-55
2022/12/15 13:24:31;;;;;;;63.60;14.02;;;6.90;99.30;;;;;;5108927;28;20043;-54
2022/12/15 13:27:08;;;;;;;57.50;12.85;;;6.90;99.30;;;;;;5109883;28;20159;-55
2022/12/15 13:29:53;;;;;;;65.32;13.95;;;6.90;99.30;;;;;;5109196;28;20024;-54
2022/12/15 13:32:44;;;;;;;56.08;14.10;;;6.90;99.20;;;;;;5111840;28;20027;-54
2022/12/15 13:35:13;;;;;;;83.13;15.60;;;6.90;99.30;;;;;;5108923;28;20035;-55
2022/12/15 13:37:54;;;;;;;87.53;15.60;;;6.90;99.30;;;;;;5127008;28;20032;-55
2022/12/15 13:40:34;;;;;;;63.90;15.65;;;6.90;99.20;;;;;;5093382;28;20032;-55
2022/12/15 13:43:05;;;;;;;59.88;14.68;;;6.90;99.20;;;;;;5106768;28;20032;-55
2022/12/15 13:45:52;;;;;;;64.15;15.48;;;6.90;99.40;;;;;;5121848;28;20046;-54
2022/12/15 13:48:31;;;;;;;71.28;15.80;;;6.90;99.10;;;;;;5089933;28;20040;-54
2022/12/15 13:51:23;;;;;;;52.25;15.10;;;6.90;99.10;;;;;;5088238;28;20028;-55
2022/12/15 13:53:59;;;;;;;59.83;15.18;;;6.90;99.10;;;;;;5106394;28;20032;-55
2022/12/15 13:56:56;;;;;;;52.88;15.35;;;6.90;99.10;;;;;;5106953;28;20055;-55
2022/12/15 13:59:26;;;;;;;61.47;15.45;;;6.90;99.00;;;;;;5092965;28;20082;-55
2022/12/15 14:01:52;;;;;;;76.28;17.27;;;7.00;99.00;;;;;;5108737;28;20031;-55
2022/12/15 14:04:18;;;;;;;92.53;17.38;;;6.90;98.90;;;;;;5091004;28;20110;-54
2022/12/15 14:07:04;;;;;;;70.70;17.33;;;6.90;99.10;;;;;;5110455;28;20027;-54
2022/12/15 14:09:39;;;;;;;141.80;21.00;;;7.00;99.00;;;;;;5107151;28;20024;-55
2022/12/15 14:12:06;;;;;;;214.55;26.38;;;7.00;99.00;;;;;;5072391;28;20028;-55
2022/12/15 14:14:34;;;;;;;91.10;19.45;;;6.90;99.00;;;;;;5087767;28;20020;-55
2022/12/15 14:17:01;;;;;;;95.13;19.50;;;6.90;99.10;;;;;;5101881;28;20088;-54
2022/12/15 14:19:35;;;;;;;75.35;17.58;;;7.00;99.20;;;;;;5071287;28;20118;-55
2022/12/15 14:22:00;;;;;;;298.15;40.20;;;6.90;99.10;;;;;;5067631;28;20032;-55
2022/12/15 14:24:31;;;;;;;177.27;28.23;;;7.00;99.10;;;;;;5104534;28;20047;-55
2022/12/15 14:26:56;;;;;;;122.35;22.77;;;6.90;99.20;;;;;;5086625;28;20095;-54
2022/12/15 14:29:22;;;;;;;104.18;19.90;;;6.90;99.20;;;;;;5070622;28;20020;-55
2022/12/15 14:31:57;;;;;;;90.78;19.33;;;7.00;99.20;;;;;;5070590;28;20159;-55
2022/12/15 14:34:34;;;;;;;90.20;19.83;;;6.90;99.20;;;;;;5070553;28;20071;-55
2022/12/15 14:37:02;;;;;;;119.85;19.90;;;7.00;99.30;;;;;;5071667;28;20350;-55
2022/12/15 14:39:38;;;;;;;87.13;18.70;;;7.00;99.20;;;;;;5070591;28;20040;-55
2022/12/15 14:42:04;;;;;;;110.70;18.92;;;7.00;99.20;;;;;;5075954;28;20053;-54
2022/12/15 14:44:35;;;;;;;91.47;20.98;;;7.00;99.20;;;;;;5089787;28;20027;-54
2022/12/15 14:47:02;;;;;;;135.07;22.85;;;7.00;99.20;;;;;;5090233;28;20464;-55
2022/12/15 14:49:35;;;;;;;115.03;20.02;;;7.00;99.40;;;;;;5089977;28;20039;-54
2022/12/15 14:52:03;;;;;;;118.60;20.23;;;7.00;99.60;;;;;;5072485;28;20471;-55
2022/12/15 14:54:34;;;;;;;102.75;21.80;;;7.00;99.60;;;;;;5085667;28;20031;-55
2022/12/15 14:57:14;;;;;;;105.32;21.88;;;7.00;99.60;;;;;;5123693;27;20028;-54
2022/12/15 14:59:41;;;;;;;119.70;20.95;;;7.00;99.60;;;;;;5105641;28;20031;-55
2022/12/15 15:02:25;;;;;;;119.35;21.23;;;7.00;99.60;;;;;;5119415;28;20031;-54
2022/12/15 15:05:23;;;;;;;97.45;20.42;;;7.00;99.60;;;;;;5087345;28;20024;-55
2022/12/15 15:07:53;;;;;;;96.82;19.20;;;7.00;99.80;;;;;;5123659;28;20058;-54
2022/12/15 15:10:23;;;;;;;101.47;17.90;;;7.00;99.50;;;;;;5091805;28;20037;-55
2022/12/15 15:12:48;;;;;;;84.80;17.83;;;7.00;99.50;;;;;;5085073;28;20032;-54
2022/12/15 15:15:17;;;;;;;90.00;18.63;;;7.00;99.40;;;;;;5084567;28;20035;-55
2022/12/15 15:17:51;;;;;;;86.07;18.67;;;7.00;99.40;;;;;;5088848;28;20032;-54
2022/12/15 15:20:28;;;;;;;102.18;19.85;;;7.00;99.40;;;;;;5084797;28;20035;-55
2022/12/15 15:23:11;;;;;;;91.05;19.92;;;7.00;99.50;;;;;;5093317;28;20047;-55
2022/12/15 15:25:47;;;;;;;109.57;20.92;;;7.00;99.50;;;;;;5107451;28;20032;-55
2022/12/15 15:28:21;;;;;;;103.07;22.10;;;7.00;99.80;;;;;;5083391;28;20023;-55